Terminal Aerodrome Forecast
Issued by NWS

Home | Current Version | Previous Version | Text Only | Print | Product List | Glossary On
Versions: 1 2 3 4 5 6 7 8 9 10 11 12 13 14 15 16 17 18 19 20 21 22 23 24 25 26 27 28 29 30 31 32 33 34 35 36 37
000
FTAK31 PANC 221739
TAFADU
TAF
PADU 221739Z 2218/2318 34014KT P6SM -SN OVC025
      TEMPO 2218/2220 3SM -SHSN BKN012 OVC025
     FM222000 33008G15KT P6SM FEW025 BKN120
     FM231000 14008KT P6SM SCT035 BKN100
     FM231300 14012G21KT P6SM -SHRASN OVC035=

USA.gov is the U.S. government's official web portal to all federal, state and local government web resources and services.